Time;durP1;ratioP1;P1;durP2;ratioP2;P2;SDS_P1;SDS_P2;PMS_P1;PMS_P2;Temp;Humidity;BMP_temperature;BMP_pressure;BME280_temperature;BME280_humidity;BME280_pressure;Samples;Min_cycle;Max_cycle;Signal;HPM_P1;HPM_P2
2021/11/06 00:00:13;;;;;;;0.57;0.32;;;11.00;70.10;;;;;;5035147;28;20025;-76
2021/11/06 00:02:39;;;;;;;0.50;0.50;;;10.90;70.70;;;;;;5034522;28;20095;-75
2021/11/06 00:05:05;;;;;;;0.30;0.30;;;10.90;69.70;;;;;;5052776;28;20483;-75
2021/11/06 00:07:31;;;;;;;1.00;0.30;;;11.00;70.20;;;;;;5052715;28;20386;-75
2021/11/06 00:09:57;;;;;;;0.90;0.43;;;10.90;70.50;;;;;;5052761;28;20040;-75
2021/11/06 00:12:23;;;;;;;0.52;0.43;;;10.90;70.20;;;;;;5052465;28;20479;-75
2021/11/06 00:14:48;;;;;;;0.40;0.40;;;10.90;69.70;;;;;;5052692;28;20054;-75
2021/11/06 00:17:14;;;;;;;1.00;0.35;;;10.90;70.00;;;;;;5052593;28;20061;-75
2021/11/06 00:19:40;;;;;;;0.30;0.30;;;10.90;70.00;;;;;;5033747;28;20021;-75
2021/11/06 00:22:08;;;;;;;0.65;0.40;;;10.90;70.10;;;;;;5052396;28;20060;-75
2021/11/06 00:24:35;;;;;;;1.58;0.70;;;10.90;70.10;;;;;;5081541;28;20020;-75
2021/11/06 00:27:00;;;;;;;0.40;0.40;;;10.80;71.20;;;;;;5074464;28;20362;-75
2021/11/06 00:29:26;;;;;;;0.50;0.50;;;10.80;71.10;;;;;;5092410;28;20031;-75
2021/11/06 00:31:52;;;;;;;0.32;0.30;;;10.80;71.70;;;;;;5092692;28;20091;-75
2021/11/06 00:34:18;;;;;;;0.80;0.38;;;10.80;72.50;;;;;;5092384;28;20032;-75
2021/11/06 00:36:44;;;;;;;0.32;0.32;;;10.70;73.40;;;;;;5074363;28;20039;-75
2021/11/06 00:39:10;;;;;;;0.40;0.40;;;10.70;73.30;;;;;;5092314;28;20032;-75
2021/11/06 00:41:35;;;;;;;0.30;0.30;;;10.70;73.10;;;;;;5092229;28;20041;-75
2021/11/06 00:44:01;;;;;;;0.40;0.40;;;10.70;72.70;;;;;;5092343;28;20106;-75
2021/11/06 00:46:27;;;;;;;0.65;0.40;;;10.60;76.10;;;;;;5092322;28;20031;-75
2021/11/06 00:48:53;;;;;;;0.40;0.40;;;10.60;76.10;;;;;;5092112;28;20032;-75
2021/11/06 00:51:19;;;;;;;0.40;0.40;;;10.50;75.20;;;;;;5074116;28;20073;-75
2021/11/06 00:53:46;;;;;;;0.50;0.50;;;10.50;74.90;;;;;;5092134;28;20478;-75
2021/11/06 00:56:12;;;;;;;0.40;0.40;;;10.50;74.50;;;;;;5073640;28;20374;-75
2021/11/06 00:58:38;;;;;;;0.45;0.45;;;10.50;75.70;;;;;;5091959;28;20031;-75
2021/11/06 01:01:03;;;;;;;0.30;0.30;;;10.50;73.30;;;;;;5058244;28;20025;-75
2021/11/06 01:03:29;;;;;;;0.40;0.40;;;10.50;74.00;;;;;;5051852;28;20100;-75
2021/11/06 01:05:55;;;;;;;0.30;0.30;;;10.50;74.00;;;;;;5033914;28;20021;-75
2021/11/06 01:08:21;;;;;;;0.30;0.30;;;10.40;74.50;;;;;;5051628;28;20018;-75
2021/11/06 01:10:48;;;;;;;0.30;0.30;;;10.30;79.00;;;;;;5051458;28;20025;-75
2021/11/06 01:13:14;;;;;;;0.40;0.40;;;10.30;78.80;;;;;;5051803;28;20433;-75
2021/11/06 01:15:40;;;;;;;0.60;0.40;;;10.30;76.80;;;;;;5051626;28;20435;-75
2021/11/06 01:18:06;;;;;;;0.30;0.30;;;10.30;75.60;;;;;;5051504;28;20029;-75
2021/11/06 01:20:32;;;;;;;0.30;0.30;;;10.30;75.80;;;;;;5051556;28;20025;-75
2021/11/06 01:22:58;;;;;;;0.40;0.40;;;10.30;75.10;;;;;;5052323;28;20192;-75
2021/11/06 01:25:24;;;;;;;0.28;0.28;;;10.20;77.80;;;;;;5071440;28;20020;-75
2021/11/06 01:27:50;;;;;;;0.40;0.40;;;10.20;76.00;;;;;;5070271;28;20028;-75
2021/11/06 01:30:16;;;;;;;1.27;0.40;;;10.20;76.00;;;;;;5071184;28;20032;-75
2021/11/06 01:32:46;;;;;;;1.15;0.30;;;10.20;74.20;;;;;;5071403;28;20081;-75
2021/11/06 01:35:14;;;;;;;0.30;0.30;;;10.30;74.10;;;;;;5071363;28;20376;-75
2021/11/06 01:37:43;;;;;;;0.65;0.65;;;10.20;73.50;;;;;;5070105;28;20028;-75
2021/11/06 01:40:11;;;;;;;0.30;0.30;;;10.30;72.90;;;;;;5071373;28;20483;-75
2021/11/06 01:42:38;;;;;;;0.38;0.38;;;10.30;73.50;;;;;;5071268;28;20029;-75
2021/11/06 01:45:05;;;;;;;0.22;0.22;;;10.30;73.60;;;;;;5071277;28;20028;-75
2021/11/06 01:47:31;;;;;;;0.63;0.40;;;10.30;72.30;;;;;;5071335;28;20085;-75
2021/11/06 01:49:56;;;;;;;0.25;0.25;;;10.30;73.10;;;;;;5070700;28;20495;-75
2021/11/06 01:52:22;;;;;;;0.30;0.30;;;10.30;73.10;;;;;;5053061;28;20032;-75
2021/11/06 01:54:48;;;;;;;0.22;0.22;;;10.30;72.90;;;;;;5072604;28;20167;-75
2021/11/06 01:57:16;;;;;;;0.50;0.50;;;10.20;73.60;;;;;;5036969;28;20067;-75
2021/11/06 01:59:43;;;;;;;0.40;0.40;;;10.20;74.40;;;;;;5065263;28;20032;-75
2021/11/06 02:02:10;;;;;;;0.38;0.30;;;10.20;72.90;;;;;;5063081;28;20188;-75
2021/11/06 02:04:36;;;;;;;0.43;0.43;;;10.20;72.30;;;;;;5065697;28;20581;-75
2021/11/06 02:07:03;;;;;;;0.40;0.40;;;10.20;73.00;;;;;;5063264;28;20162;-75
2021/11/06 02:09:29;;;;;;;0.22;0.22;;;10.20;74.70;;;;;;5049549;28;20382;-75
2021/11/06 02:11:55;;;;;;;0.50;0.50;;;10.20;73.70;;;;;;5063202;28;20020;-75
2021/11/06 02:14:21;;;;;;;0.40;0.40;;;10.20;73.60;;;;;;5066883;28;20111;-75
2021/11/06 02:16:47;;;;;;;0.30;0.30;;;10.20;73.90;;;;;;5062926;28;20043;-75
2021/11/06 02:19:13;;;;;;;0.30;0.30;;;10.20;72.90;;;;;;5065965;28;20493;-75
2021/11/06 02:21:39;;;;;;;0.30;0.30;;;10.20;73.60;;;;;;5064496;28;20436;-75
2021/11/06 02:24:06;;;;;;;0.30;0.30;;;10.20;72.70;;;;;;5056059;28;20037;-75
2021/11/06 02:26:32;;;;;;;0.40;0.40;;;10.20;74.40;;;;;;5043623;28;20079;-75
2021/11/06 02:29:02;;;;;;;0.32;0.30;;;10.20;73.60;;;;;;5028507;28;20111;-75
2021/11/06 02:31:28;;;;;;;0.50;0.50;;;10.10;73.30;;;;;;5024943;28;20064;-75
2021/11/06 02:33:54;;;;;;;1.58;0.50;;;10.20;73.80;;;;;;5046519;28;20027;-75
2021/11/06 02:36:20;;;;;;;0.38;0.38;;;10.20;73.00;;;;;;5044347;28;20115;-75
2021/11/06 02:38:46;;;;;;;0.57;0.50;;;10.10;73.80;;;;;;5045015;28;20105;-75
2021/11/06 02:41:12;;;;;;;0.63;0.20;;;10.10;73.60;;;;;;5044740;28;20116;-75
2021/11/06 02:43:38;;;;;;;0.60;0.50;;;10.10;74.10;;;;;;5049728;28;20422;-76
2021/11/06 02:46:04;;;;;;;0.40;0.40;;;10.10;74.30;;;;;;5046540;28;20454;-75
2021/11/06 02:48:30;;;;;;;0.40;0.40;;;10.10;73.70;;;;;;5049562;28;20101;-75
2021/11/06 02:50:55;;;;;;;0.30;0.30;;;10.00;74.60;;;;;;5029139;28;20025;-75
2021/11/06 02:53:21;;;;;;;0.30;0.30;;;10.00;74.10;;;;;;5053785;28;20025;-75
2021/11/06 02:55:48;;;;;;;0.57;0.30;;;10.00;75.00;;;;;;5066585;28;20452;-75
2021/11/06 02:58:14;;;;;;;0.30;0.30;;;10.00;74.50;;;;;;5066982;28;20029;-75
2021/11/06 03:00:44;;;;;;;0.40;0.40;;;10.00;74.00;;;;;;5048715;28;20123;-75
2021/11/06 03:03:10;;;;;;;0.40;0.40;;;10.00;74.70;;;;;;5050858;28;20077;-75
2021/11/06 03:05:36;;;;;;;0.82;0.68;;;10.00;74.70;;;;;;5066033;28;20428;-75
2021/11/06 03:08:02;;;;;;;0.38;0.38;;;10.00;74.50;;;;;;5069416;28;20025;-75
2021/11/06 03:10:27;;;;;;;0.30;0.30;;;10.00;75.30;;;;;;5048896;28;20062;-75
2021/11/06 03:12:54;;;;;;;0.30;0.30;;;10.00;75.90;;;;;;5069635;28;20398;-75
2021/11/06 03:15:22;;;;;;;0.43;0.43;;;9.90;76.00;;;;;;5066541;28;20024;-75
2021/11/06 03:17:48;;;;;;;1.55;0.50;;;9.90;75.70;;;;;;5050938;28;20355;-75
2021/11/06 03:20:15;;;;;;;0.40;0.40;;;9.90;76.70;;;;;;5073611;28;20099;-75
2021/11/06 03:22:42;;;;;;;0.50;0.50;;;9.90;77.80;;;;;;5073502;28;20494;-75
2021/11/06 03:25:08;;;;;;;0.75;0.40;;;9.90;76.90;;;;;;5071145;28;20021;-75
2021/11/06 03:27:34;;;;;;;0.70;0.68;;;9.90;77.10;;;;;;5073501;28;20023;-75
2021/11/06 03:30:01;;;;;;;0.85;0.70;;;9.80;77.70;;;;;;5073499;28;20020;-75
2021/11/06 03:32:27;;;;;;;0.70;0.70;;;9.70;79.00;;;;;;5073305;28;20043;-75
2021/11/06 03:34:53;;;;;;;0.50;0.50;;;9.70;79.50;;;;;;5072057;28;20028;-75
2021/11/06 03:37:18;;;;;;;0.60;0.60;;;9.60;81.90;;;;;;5073508;28;20029;-75
2021/11/06 03:39:44;;;;;;;0.50;0.50;;;9.50;81.30;;;;;;5073055;28;20521;-75
2021/11/06 03:42:10;;;;;;;0.70;0.70;;;9.50;82.80;;;;;;5073282;28;20025;-75
2021/11/06 03:44:37;;;;;;;1.02;0.63;;;9.40;84.80;;;;;;5073355;28;20025;-75
2021/11/06 03:47:03;;;;;;;1.48;0.65;;;9.30;86.10;;;;;;5072962;28;20021;-75
2021/11/06 03:49:29;;;;;;;0.60;0.60;;;9.20;87.60;;;;;;5072876;28;20017;-75
2021/11/06 03:51:55;;;;;;;0.50;0.50;;;9.10;88.20;;;;;;5072038;28;20051;-75
2021/11/06 03:54:20;;;;;;;0.57;0.57;;;9.00;89.30;;;;;;5071712;28;20032;-75
2021/11/06 03:56:46;;;;;;;1.08;0.50;;;8.90;90.50;;;;;;5072815;28;20032;-75
2021/11/06 03:59:12;;;;;;;0.40;0.40;;;8.90;90.10;;;;;;5054345;28;20418;-75
2021/11/06 04:01:38;;;;;;;0.50;0.40;;;8.90;87.90;;;;;;5072678;28;20025;-75
2021/11/06 04:04:04;;;;;;;0.73;0.43;;;8.80;90.20;;;;;;5072830;28;20009;-75
2021/11/06 04:06:32;;;;;;;0.50;0.38;;;8.60;91.10;;;;;;5054754;28;20062;-75
2021/11/06 04:08:57;;;;;;;0.60;0.60;;;8.50;91.50;;;;;;5072463;28;20263;-75
2021/11/06 04:11:23;;;;;;;0.40;0.40;;;8.40;91.80;;;;;;5072576;28;20028;-75
2021/11/06 04:13:50;;;;;;;0.47;0.47;;;8.40;89.70;;;;;;5072638;28;20064;-75
2021/11/06 04:16:16;;;;;;;0.40;0.40;;;8.40;91.00;;;;;;5072488;28;20095;-75
2021/11/06 04:18:42;;;;;;;0.40;0.40;;;8.50;89.70;;;;;;5072271;28;20025;-75
2021/11/06 04:21:08;;;;;;;0.30;0.30;;;8.60;87.90;;;;;;5072534;28;20082;-75
2021/11/06 04:23:34;;;;;;;0.38;0.38;;;8.70;83.70;;;;;;5078439;28;20501;-75
2021/11/06 04:26:00;;;;;;;0.20;0.20;;;8.90;82.50;;;;;;5074320;28;20030;-75
2021/11/06 04:28:25;;;;;;;0.40;0.40;;;9.00;81.00;;;;;;5092518;28;20021;-75
2021/11/06 04:30:51;;;;;;;0.35;0.35;;;9.10;80.90;;;;;;5092485;28;20724;-75
2021/11/06 04:33:17;;;;;;;0.30;0.30;;;9.20;79.30;;;;;;5092399;28;20067;-75
2021/11/06 04:35:43;;;;;;;0.32;0.30;;;9.20;78.80;;;;;;5092598;28;20077;-75
2021/11/06 04:38:09;;;;;;;0.88;0.30;;;9.30;77.60;;;;;;5092275;28;20389;-75
2021/11/06 04:40:35;;;;;;;1.75;0.40;;;9.40;77.10;;;;;;5092391;28;20057;-75
2021/11/06 04:43:01;;;;;;;0.40;0.40;;;9.40;77.10;;;;;;5092345;28;20024;-75
2021/11/06 04:45:26;;;;;;;0.73;0.40;;;9.50;77.40;;;;;;5092258;28;20031;-75
2021/11/06 04:47:53;;;;;;;1.10;0.30;;;9.50;77.20;;;;;;5092357;28;20024;-75
2021/11/06 04:50:18;;;;;;;0.50;0.50;;;9.50;77.60;;;;;;5092031;28;20114;-75
2021/11/06 04:52:44;;;;;;;0.20;0.20;;;9.50;77.30;;;;;;5092105;28;20128;-75
2021/11/06 04:55:13;;;;;;;0.30;0.30;;;9.50;76.50;;;;;;5073959;28;20028;-75
2021/11/06 04:57:39;;;;;;;0.30;0.30;;;9.50;76.20;;;;;;5083925;28;20044;-75
2021/11/06 05:00:07;;;;;;;0.38;0.38;;;9.60;76.20;;;;;;5053589;28;20029;-75
2021/11/06 05:02:33;;;;;;;0.40;0.40;;;9.60;76.00;;;;;;5071734;28;20028;-75
2021/11/06 05:04:59;;;;;;;0.40;0.40;;;9.60;75.00;;;;;;5071467;28;20505;-75
2021/11/06 05:07:25;;;;;;;0.50;0.50;;;9.60;75.40;;;;;;5071733;28;20501;-75
2021/11/06 05:09:51;;;;;;;0.30;0.30;;;9.60;75.70;;;;;;5071522;28;20052;-75
2021/11/06 05:12:20;;;;;;;0.30;0.30;;;9.60;75.10;;;;;;5071701;28;20440;-75
2021/11/06 05:14:49;;;;;;;0.93;0.40;;;9.70;74.60;;;;;;5071828;28;20074;-75
2021/11/06 05:17:17;;;;;;;0.30;0.30;;;9.60;75.60;;;;;;5071563;28;20107;-75
2021/11/06 05:19:43;;;;;;;0.30;0.30;;;9.60;75.60;;;;;;5053263;28;20054;-75
2021/11/06 05:22:10;;;;;;;1.75;0.30;;;9.60;76.00;;;;;;5071327;28;20550;-80
2021/11/06 05:24:37;;;;;;;0.40;0.40;;;9.60;75.20;;;;;;5084957;28;20333;-80
2021/11/06 05:27:04;;;;;;;0.30;0.28;;;9.60;75.30;;;;;;5089548;28;20107;-80
2021/11/06 05:29:30;;;;;;;0.38;0.38;;;9.60;75.90;;;;;;5089828;28;20028;-80
2021/11/06 05:31:56;;;;;;;0.30;0.30;;;9.60;76.20;;;;;;5071612;28;20081;-80
2021/11/06 05:34:22;;;;;;;0.30;0.30;;;9.50;76.00;;;;;;5089651;28;20056;-80
2021/11/06 05:36:48;;;;;;;0.40;0.40;;;9.50;75.80;;;;;;5089602;28;20028;-80
2021/11/06 05:39:13;;;;;;;0.60;0.60;;;9.50;75.50;;;;;;5089833;28;20054;-80
2021/11/06 05:41:39;;;;;;;0.40;0.40;;;9.50;76.00;;;;;;5091411;28;20028;-79
2021/11/06 05:44:05;;;;;;;1.13;0.47;;;9.60;75.90;;;;;;5091789;28;20025;-79
2021/11/06 05:46:31;;;;;;;1.35;0.50;;;9.60;74.60;;;;;;5073347;28;20081;-80
2021/11/06 05:48:57;;;;;;;1.42;0.30;;;9.60;76.10;;;;;;5089758;28;20020;-80
2021/11/06 05:51:23;;;;;;;0.32;0.30;;;9.60;75.90;;;;;;5071234;28;20025;-80
2021/11/06 05:53:49;;;;;;;0.40;0.40;;;9.50;77.50;;;;;;5071278;28;20070;-80
2021/11/06 05:56:16;;;;;;;0.55;0.40;;;9.50;77.80;;;;;;5053249;28;20021;-80
2021/11/06 05:58:42;;;;;;;0.98;0.50;;;9.50;78.10;;;;;;5053261;28;20108;-80
2021/11/06 06:01:08;;;;;;;0.20;0.20;;;9.50;78.00;;;;;;5071547;28;20027;-80
2021/11/06 06:03:33;;;;;;;0.30;0.30;;;9.40;77.00;;;;;;5071091;28;20020;-80
2021/11/06 06:05:59;;;;;;;0.40;0.40;;;9.50;74.80;;;;;;5071448;28;20051;-80
2021/11/06 06:08:26;;;;;;;0.30;0.30;;;9.50;74.80;;;;;;5071256;28;20017;-80
2021/11/06 06:10:52;;;;;;;1.13;0.40;;;9.60;75.30;;;;;;5071086;28;20025;-80
2021/11/06 06:13:18;;;;;;;0.28;0.28;;;9.60;75.20;;;;;;5053209;28;20031;-80
2021/11/06 06:15:43;;;;;;;1.08;0.40;;;9.60;75.00;;;;;;5070947;28;20024;-80
2021/11/06 06:18:10;;;;;;;0.52;0.52;;;9.60;74.70;;;;;;5074768;28;20087;-80
2021/11/06 06:20:36;;;;;;;0.40;0.40;;;9.60;74.30;;;;;;5074951;28;20036;-80
2021/11/06 06:23:02;;;;;;;0.30;0.30;;;9.60;74.90;;;;;;5054947;28;20410;-80
2021/11/06 06:25:28;;;;;;;0.25;0.25;;;9.60;75.40;;;;;;5074667;28;20025;-80
2021/11/06 06:27:54;;;;;;;0.30;0.30;;;9.70;74.50;;;;;;5074816;28;20074;-80
2021/11/06 06:30:20;;;;;;;0.40;0.40;;;9.70;74.30;;;;;;5074579;28;20098;-80
2021/11/06 06:32:46;;;;;;;0.28;0.28;;;9.70;74.60;;;;;;5074506;28;20032;-80
2021/11/06 06:35:14;;;;;;;0.45;0.45;;;9.70;74.70;;;;;;5074610;28;20116;-80
2021/11/06 06:37:40;;;;;;;0.40;0.40;;;9.70;75.90;;;;;;5074336;28;20021;-79
2021/11/06 06:40:08;;;;;;;0.45;0.45;;;9.70;74.30;;;;;;5074230;28;20074;-80
2021/11/06 06:42:33;;;;;;;0.88;0.73;;;9.70;74.50;;;;;;5074486;28;20020;-80
2021/11/06 06:44:59;;;;;;;0.75;0.75;;;9.70;75.20;;;;;;5074536;28;20042;-80
2021/11/06 06:47:25;;;;;;;0.40;0.40;;;9.70;75.90;;;;;;5073235;28;20017;-79
2021/11/06 06:49:51;;;;;;;0.50;0.50;;;9.70;75.00;;;;;;5074345;28;20024;-80
2021/11/06 06:52:17;;;;;;;0.65;0.65;;;9.70;74.30;;;;;;5066168;28;20378;-80
2021/11/06 06:54:43;;;;;;;0.65;0.65;;;9.80;73.90;;;;;;5049687;28;20029;-80
2021/11/06 06:57:09;;;;;;;1.02;0.50;;;9.80;74.00;;;;;;5054212;28;20109;-80
2021/11/06 06:59:35;;;;;;;0.60;0.40;;;9.80;74.10;;;;;;5053887;28;20111;-79
2021/11/06 07:02:02;;;;;;;0.80;0.40;;;9.80;74.50;;;;;;5054056;28;20021;-80
2021/11/06 07:04:28;;;;;;;0.30;0.30;;;9.80;74.60;;;;;;5054105;28;20075;-80
2021/11/06 07:06:54;;;;;;;0.40;0.40;;;9.80;74.10;;;;;;5054083;28;20417;-80
2021/11/06 07:09:21;;;;;;;0.55;0.50;;;9.80;76.00;;;;;;5052388;28;20035;-79
2021/11/06 07:11:48;;;;;;;0.68;0.63;;;9.90;76.00;;;;;;5054162;28;20541;-79
2021/11/06 07:14:15;;;;;;;0.45;0.45;;;9.90;75.60;;;;;;5053761;28;20372;-80
2021/11/06 07:16:44;;;;;;;0.40;0.40;;;9.90;75.60;;;;;;5053793;28;20284;-75
2021/11/06 07:19:10;;;;;;;0.60;0.57;;;9.90;76.00;;;;;;5052106;28;20025;-75
2021/11/06 07:21:40;;;;;;;1.65;0.60;;;9.90;76.80;;;;;;5053371;28;20548;-75
2021/11/06 07:24:06;;;;;;;0.98;0.82;;;9.90;76.70;;;;;;5072191;28;20048;-75
2021/11/06 07:26:32;;;;;;;1.13;0.57;;;9.90;76.80;;;;;;5073633;28;20012;-75
2021/11/06 07:28:58;;;;;;;1.23;0.80;;;9.90;76.90;;;;;;5073227;28;20031;-75
2021/11/06 07:31:24;;;;;;;0.85;0.60;;;9.90;77.80;;;;;;5073596;28;20046;-75
2021/11/06 07:33:53;;;;;;;0.90;0.90;;;9.90;77.90;;;;;;5073572;28;20021;-75
2021/11/06 07:36:19;;;;;;;0.98;0.98;;;9.90;78.20;;;;;;5073236;28;20525;-75
2021/11/06 07:38:44;;;;;;;1.08;0.73;;;9.90;78.10;;;;;;5073355;28;20044;-75
2021/11/06 07:41:11;;;;;;;0.60;0.60;;;10.00;77.60;;;;;;5073139;28;20034;-75
2021/11/06 07:43:37;;;;;;;0.52;0.40;;;10.00;77.00;;;;;;5073418;28;20435;-75
2021/11/06 07:46:07;;;;;;;0.60;0.60;;;10.00;77.50;;;;;;5071802;28;20035;-75
2021/11/06 07:48:34;;;;;;;2.97;0.80;;;10.00;76.70;;;;;;5063802;28;20104;-75
2021/11/06 07:51:00;;;;;;;0.93;0.68;;;10.00;77.00;;;;;;5039977;28;20026;-75
2021/11/06 07:53:26;;;;;;;1.52;0.57;;;10.00;78.20;;;;;;5041882;28;20022;-75
2021/11/06 07:55:52;;;;;;;0.60;0.60;;;10.10;78.70;;;;;;5050386;28;20086;-75
2021/11/06 07:58:18;;;;;;;0.50;0.50;;;10.10;78.70;;;;;;5053776;28;20059;-75
2021/11/06 08:00:44;;;;;;;0.70;0.70;;;10.10;77.60;;;;;;5054068;28;20032;-75
2021/11/06 08:03:11;;;;;;;0.40;0.40;;;10.20;77.00;;;;;;5052619;28;20021;-75
2021/11/06 08:05:37;;;;;;;0.70;0.68;;;10.10;76.60;;;;;;5054036;28;20005;-75
2021/11/06 08:08:03;;;;;;;0.50;0.50;;;10.10;77.00;;;;;;5053943;28;20029;-75
2021/11/06 08:10:29;;;;;;;0.85;0.68;;;10.10;75.20;;;;;;5053704;28;20025;-75
2021/11/06 08:13:00;;;;;;;0.77;0.55;;;10.20;76.00;;;;;;5052649;28;20029;-75
2021/11/06 08:15:26;;;;;;;1.07;1.03;;;10.20;75.80;;;;;;5053126;28;20021;-80
2021/11/06 08:17:53;;;;;;;1.30;0.90;;;10.20;74.70;;;;;;5044484;28;20255;-79
2021/11/06 08:20:20;;;;;;;1.48;1.10;;;10.30;75.90;;;;;;5036675;28;20040;-79
2021/11/06 08:22:46;;;;;;;1.90;0.70;;;10.30;76.30;;;;;;5048174;28;20036;-79
2021/11/06 08:25:16;;;;;;;1.30;0.75;;;10.40;74.90;;;;;;5059184;28;20043;-79
2021/11/06 08:27:43;;;;;;;0.75;0.50;;;10.40;75.50;;;;;;5056773;28;20016;-79
2021/11/06 08:30:09;;;;;;;0.57;0.57;;;10.50;75.30;;;;;;5059177;28;20055;-79
2021/11/06 08:32:35;;;;;;;0.68;0.57;;;10.60;76.70;;;;;;5039062;28;20021;-80
2021/11/06 08:35:03;;;;;;;0.93;0.85;;;10.60;76.10;;;;;;5056503;28;20081;-80
2021/11/06 08:37:28;;;;;;;0.93;0.93;;;10.70;75.80;;;;;;5058876;28;20030;-79
2021/11/06 08:39:54;;;;;;;0.98;0.90;;;10.80;76.40;;;;;;5052781;28;20450;-79
2021/11/06 08:42:20;;;;;;;0.70;0.70;;;10.80;75.60;;;;;;5060862;28;20021;-79
2021/11/06 08:44:46;;;;;;;2.33;0.55;;;10.90;75.60;;;;;;5058980;28;20078;-79
2021/11/06 08:47:11;;;;;;;0.30;0.30;;;10.90;76.00;;;;;;5068143;28;20016;-78
2021/11/06 08:49:37;;;;;;;0.85;0.50;;;10.90;74.70;;;;;;5069211;28;20056;-79
2021/11/06 08:52:03;;;;;;;0.40;0.40;;;10.90;74.30;;;;;;5069175;28;20025;-79
2021/11/06 08:54:29;;;;;;;5.30;3.88;;;11.00;74.10;;;;;;5069289;28;20028;-80
2021/11/06 08:56:55;;;;;;;1.60;1.50;;;11.00;73.60;;;;;;5058737;28;20033;-79
2021/11/06 08:59:21;;;;;;;1.20;0.47;;;11.10;73.10;;;;;;5039960;28;20039;-79
2021/11/06 09:01:50;;;;;;;0.30;0.30;;;11.10;72.90;;;;;;5057249;28;20128;-80
2021/11/06 09:04:17;;;;;;;1.02;1.02;;;11.20;72.20;;;;;;5056529;28;20036;-80
2021/11/06 09:06:44;;;;;;;0.80;0.43;;;11.20;70.70;;;;;;5059574;28;20024;-80
2021/11/06 09:09:14;;;;;;;0.38;0.38;;;11.30;70.60;;;;;;5061178;28;20021;-81
2021/11/06 09:11:41;;;;;;;0.40;0.40;;;11.30;68.40;;;;;;5057973;28;20013;-79
2021/11/06 09:14:08;;;;;;;1.05;0.35;;;11.40;68.60;;;;;;5059309;28;20103;-79
2021/11/06 09:16:33;;;;;;;0.57;0.50;;;11.30;71.20;;;;;;5057226;28;20017;-80
2021/11/06 09:19:01;;;;;;;0.45;0.45;;;11.50;69.30;;;;;;5059378;28;20565;-80
2021/11/06 09:21:29;;;;;;;0.40;0.35;;;11.50;67.70;;;;;;5059962;28;20032;-78
2021/11/06 09:24:01;;;;;;;0.57;0.40;;;11.50;66.00;;;;;;5058795;28;20090;-79
2021/11/06 09:26:28;;;;;;;0.30;0.30;;;11.50;66.40;;;;;;5043280;28;20413;-81
2021/11/06 09:28:54;;;;;;;0.20;0.20;;;11.50;68.10;;;;;;5057467;28;20020;-80
2021/11/06 09:31:20;;;;;;;0.50;0.50;;;11.60;67.80;;;;;;5060957;28;20025;-81
2021/11/06 09:33:46;;;;;;;0.77;0.43;;;11.60;67.70;;;;;;5051824;28;20021;-82
2021/11/06 09:36:12;;;;;;;0.43;0.43;;;11.60;69.80;;;;;;5051861;28;20028;-82
2021/11/06 09:38:40;;;;;;;0.45;0.30;;;11.70;70.90;;;;;;5060911;28;20078;-81
2021/11/06 09:41:08;;;;;;;0.60;0.60;;;11.80;72.20;;;;;;5059875;28;20029;-81
2021/11/06 09:43:36;;;;;;;0.60;0.60;;;11.80;73.30;;;;;;5062771;28;20020;-81
2021/11/06 09:46:02;;;;;;;1.52;1.02;;;11.90;74.90;;;;;;5062171;28;20489;-79
2021/11/06 09:48:30;;;;;;;0.65;0.65;;;12.00;74.70;;;;;;5066377;28;20052;-79
2021/11/06 09:50:57;;;;;;;0.65;0.63;;;12.00;73.30;;;;;;5049191;28;20435;-79
2021/11/06 09:53:27;;;;;;;0.60;0.60;;;12.00;74.10;;;;;;5064819;28;20035;-79
2021/11/06 09:55:53;;;;;;;0.75;0.70;;;12.10;74.80;;;;;;5064505;28;20025;-79
2021/11/06 09:58:20;;;;;;;0.40;0.40;;;12.20;74.20;;;;;;5064794;28;20025;-79
2021/11/06 10:00:46;;;;;;;0.47;0.40;;;12.20;73.90;;;;;;5067105;28;20078;-80
2021/11/06 10:03:13;;;;;;;0.70;0.50;;;12.20;74.80;;;;;;5075509;28;20013;-79
2021/11/06 10:05:51;;;;;;;2.55;0.90;;;12.30;76.60;;;;;;5070315;28;20038;-79
2021/11/06 10:08:36;;;;;;;1.00;0.60;;;12.40;77.40;;;;;;5062343;28;20091;-80
2021/11/06 10:11:25;;;;;;;0.82;0.50;;;12.40;72.90;;;;;;5065151;28;20028;-79
2021/11/06 10:14:01;;;;;;;0.55;0.55;;;12.40;73.70;;;;;;5041806;28;20047;-78
2021/11/06 10:16:35;;;;;;;0.50;0.50;;;12.50;74.00;;;;;;5035282;28;20532;-78
2021/11/06 10:19:09;;;;;;;0.75;0.60;;;12.50;75.40;;;;;;5041662;28;20489;-79
2021/11/06 10:21:36;;;;;;;0.65;0.50;;;12.50;75.00;;;;;;5074078;28;20083;-79
2021/11/06 10:24:02;;;;;;;2.85;1.00;;;12.50;76.40;;;;;;5082775;28;20046;-79
2021/11/06 10:26:27;;;;;;;1.30;0.70;;;12.50;73.30;;;;;;5094132;28;20103;-79
2021/11/06 10:29:14;;;;;;;1.00;0.70;;;12.50;72.50;;;;;;5093783;28;20017;-79
2021/11/06 10:32:00;;;;;;;0.68;0.68;;;12.50;71.40;;;;;;5093745;28;20020;-79
2021/11/06 10:34:31;;;;;;;0.57;0.57;;;12.50;74.10;;;;;;5079580;28;20044;-79
2021/11/06 10:37:02;;;;;;;0.63;0.60;;;12.60;73.20;;;;;;5093906;28;20024;-79
2021/11/06 10:39:28;;;;;;;0.93;0.60;;;12.60;73.50;;;;;;5092867;28;20024;-78
2021/11/06 10:42:15;;;;;;;0.52;0.52;;;12.60;70.10;;;;;;5093538;28;20261;-78
2021/11/06 10:44:42;;;;;;;0.35;0.35;;;12.50;73.30;;;;;;5093351;28;20390;-79
2021/11/06 10:47:09;;;;;;;0.50;0.50;;;12.60;75.40;;;;;;5091883;28;20431;-79
2021/11/06 10:49:43;;;;;;;0.50;0.50;;;12.60;72.80;;;;;;5093381;28;20024;-79
2021/11/06 10:52:27;;;;;;;0.60;0.60;;;12.70;72.00;;;;;;5093444;28;20227;-78
2021/11/06 10:55:06;;;;;;;0.73;0.60;;;12.70;71.50;;;;;;5087459;28;20070;-79
2021/11/06 10:57:32;;;;;;;5.03;0.73;;;12.70;71.80;;;;;;5093540;28;20062;-79
2021/11/06 11:00:20;;;;;;;0.40;0.40;;;12.60;71.20;;;;;;5092989;28;20030;-79
2021/11/06 11:02:46;;;;;;;0.38;0.38;;;12.70;72.10;;;;;;5092410;28;20026;-79
2021/11/06 11:05:30;;;;;;;2.15;0.52;;;12.70;72.10;;;;;;5092872;28;20487;-78
2021/11/06 11:08:15;;;;;;;0.93;0.50;;;12.70;70.20;;;;;;5092805;28;20034;-79
2021/11/06 11:10:41;;;;;;;0.68;0.68;;;12.70;71.10;;;;;;5075146;28;20704;-78
2021/11/06 11:13:19;;;;;;;0.50;0.50;;;12.70;75.30;;;;;;5092586;28;20022;-80
2021/11/06 11:15:53;;;;;;;0.70;0.70;;;12.80;74.30;;;;;;5092692;28;20020;-80
2021/11/06 11:18:52;;;;;;;0.60;0.52;;;12.80;69.80;;;;;;5092483;28;20516;-80
2021/11/06 11:21:26;;;;;;;2.15;0.40;;;12.90;71.70;;;;;;5059802;28;20474;-79
2021/11/06 11:23:57;;;;;;;0.73;0.60;;;12.90;69.30;;;;;;5090474;28;20055;-79
2021/11/06 11:26:51;;;;;;;0.80;0.68;;;13.00;68.50;;;;;;5089704;28;20016;-79
2021/11/06 11:29:24;;;;;;;0.65;0.65;;;13.00;68.60;;;;;;5088990;28;20043;-79
2021/11/06 11:31:51;;;;;;;0.60;0.52;;;13.10;71.30;;;;;;5071788;28;20019;-79
2021/11/06 11:34:18;;;;;;;0.55;0.55;;;13.20;71.60;;;;;;5089410;28;20028;-79
2021/11/06 11:36:45;;;;;;;0.80;0.80;;;13.20;68.60;;;;;;5088990;28;20069;-79
2021/11/06 11:39:14;;;;;;;0.80;0.80;;;13.10;66.10;;;;;;5089235;28;20035;-79
2021/11/06 11:41:49;;;;;;;0.50;0.50;;;13.10;67.80;;;;;;5071199;28;20034;-80
2021/11/06 11:44:38;;;;;;;0.98;0.60;;;13.10;67.40;;;;;;5089089;28;20385;-79
2021/11/06 11:47:09;;;;;;;2.20;0.50;;;13.10;68.50;;;;;;5089658;28;20283;-80
2021/11/06 11:49:38;;;;;;;2.65;0.80;;;13.10;67.40;;;;;;5088921;28;20024;-79
2021/11/06 11:52:35;;;;;;;1.75;0.60;;;13.10;69.20;;;;;;5088792;28;20035;-79
2021/11/06 11:55:18;;;;;;;0.50;0.50;;;13.20;71.30;;;;;;5072995;28;20043;-79
2021/11/06 11:57:51;;;;;;;0.50;0.50;;;13.20;71.10;;;;;;5088686;28;20032;-79
2021/11/06 12:00:16;;;;;;;2.15;0.57;;;13.20;69.40;;;;;;5070942;28;20490;-79
2021/11/06 12:03:00;;;;;;;0.50;0.50;;;13.30;70.70;;;;;;5088497;28;20077;-79
2021/11/06 12:05:37;;;;;;;0.43;0.40;;;13.30;72.80;;;;;;5089323;28;20024;-79
2021/11/06 12:08:12;;;;;;;0.70;0.55;;;13.30;71.10;;;;;;5070986;28;20020;-79
2021/11/06 12:10:40;;;;;;;0.60;0.60;;;13.30;72.70;;;;;;5064194;28;20386;-79
2021/11/06 12:13:30;;;;;;;1.65;0.75;;;13.30;73.70;;;;;;5067914;28;20017;-79
2021/11/06 12:16:05;;;;;;;1.52;0.90;;;13.30;73.90;;;;;;5068233;28;20108;-79
2021/11/06 12:18:36;;;;;;;0.40;0.40;;;13.30;69.60;;;;;;5067849;28;20081;-79
2021/11/06 12:21:21;;;;;;;0.43;0.43;;;13.30;72.70;;;;;;5067909;28;20034;-79
2021/11/06 12:23:51;;;;;;;0.45;0.45;;;13.30;75.90;;;;;;5067818;28;20045;-79
2021/11/06 12:26:17;;;;;;;0.80;0.80;;;13.20;72.20;;;;;;5067862;28;20024;-79
2021/11/06 12:28:47;;;;;;;0.70;0.70;;;13.20;70.50;;;;;;5068284;28;20028;-79
2021/11/06 12:31:31;;;;;;;0.60;0.60;;;13.30;71.10;;;;;;5068499;28;20048;-79
2021/11/06 12:33:58;;;;;;;1.05;0.60;;;13.30;72.60;;;;;;5068610;28;20479;-79
2021/11/06 12:36:33;;;;;;;4.07;0.70;;;13.20;70.00;;;;;;5085409;28;20790;-79
2021/11/06 12:39:02;;;;;;;0.98;0.63;;;13.30;72.90;;;;;;5084323;28;20464;-79
2021/11/06 12:41:29;;;;;;;1.73;0.57;;;13.30;70.50;;;;;;5083203;28;20475;-79
2021/11/06 12:43:59;;;;;;;1.10;0.70;;;13.20;72.00;;;;;;5083909;28;20123;-79
2021/11/06 12:46:28;;;;;;;0.45;0.45;;;13.20;69.70;;;;;;5082621;28;20047;-79
2021/11/06 12:49:03;;;;;;;1.40;0.60;;;13.20;72.10;;;;;;5084037;28;20536;-79
2021/11/06 12:51:34;;;;;;;1.45;0.68;;;13.20;71.90;;;;;;5086717;28;20152;-79
2021/11/06 12:54:09;;;;;;;0.75;0.60;;;13.20;70.70;;;;;;5087710;28;20359;-79